sensor_id;sensor_type;location;lat;lon;timestamp;temperature;humidity
23377;DHT22;14353;46.070;13.222;2023-07-31T00:00:31;29.90;50.30
23377;DHT22;14353;46.070;13.222;2023-07-31T00:02:56;30.00;50.30
23377;DHT22;14353;46.070;13.222;2023-07-31T00:05:22;30.00;50.30
23377;DHT22;14353;46.070;13.222;2023-07-31T00:07:48;29.90;50.30
23377;DHT22;14353;46.070;13.222;2023-07-31T00:10:13;30.00;50.40
23377;DHT22;14353;46.070;13.222;2023-07-31T00:12:41;29.90;50.30
23377;DHT22;14353;46.070;13.222;2023-07-31T00:15:07;29.90;50.30
23377;DHT22;14353;46.070;13.222;2023-07-31T00:17:37;29.90;50.30
23377;DHT22;14353;46.070;13.222;2023-07-31T00:20:03;29.90;50.30
23377;DHT22;14353;46.070;13.222;2023-07-31T00:22:29;29.90;50.30
23377;DHT22;14353;46.070;13.222;2023-07-31T00:24:56;29.90;50.40
23377;DHT22;14353;46.070;13.222;2023-07-31T00:27:22;29.90;50.30
23377;DHT22;14353;46.070;13.222;2023-07-31T00:29:48;29.90;50.30
23377;DHT22;14353;46.070;13.222;2023-07-31T00:32:13;29.90;50.40
23377;DHT22;14353;46.070;13.222;2023-07-31T00:34:39;29.90;50.40
23377;DHT22;14353;46.070;13.222;2023-07-31T00:37:05;29.90;50.40
23377;DHT22;14353;46.070;13.222;2023-07-31T00:39:31;29.90;50.50
23377;DHT22;14353;46.070;13.222;2023-07-31T00:41:57;29.90;50.40
23377;DHT22;14353;46.070;13.222;2023-07-31T00:44:22;29.90;50.50
23377;DHT22;14353;46.070;13.222;2023-07-31T00:46:49;29.90;50.50
23377;DHT22;14353;46.070;13.222;2023-07-31T00:49:15;29.90;50.50
23377;DHT22;14353;46.070;13.222;2023-07-31T00:51:41;29.90;50.50
23377;DHT22;14353;46.070;13.222;2023-07-31T00:54:07;29.90;50.50
23377;DHT22;14353;46.070;13.222;2023-07-31T00:56:33;29.90;50.50
23377;DHT22;14353;46.070;13.222;2023-07-31T00:58:59;29.90;50.50
23377;DHT22;14353;46.070;13.222;2023-07-31T01:01:24;29.80;51.10
23377;DHT22;14353;46.070;13.222;2023-07-31T01:03:52;29.80;50.50
23377;DHT22;14353;46.070;13.222;2023-07-31T01:11:48;29.80;50.50
23377;DHT22;14353;46.070;13.222;2023-07-31T01:14:16;29.80;50.50
23377;DHT22;14353;46.070;13.222;2023-07-31T01:16:41;29.80;50.60
23377;DHT22;14353;46.070;13.222;2023-07-31T01:19:09;29.80;50.60
23377;DHT22;14353;46.070;13.222;2023-07-31T01:27:04;29.80;51.20
23377;DHT22;14353;46.070;13.222;2023-07-31T01:30:00;29.80;50.60
23377;DHT22;14353;46.070;13.222;2023-07-31T01:32:28;29.80;50.60
23377;DHT22;14353;46.070;13.222;2023-07-31T01:34:56;29.80;50.60
23377;DHT22;14353;46.070;13.222;2023-07-31T01:37:28;29.80;50.60
23377;DHT22;14353;46.070;13.222;2023-07-31T01:39:54;29.80;50.60
23377;DHT22;14353;46.070;13.222;2023-07-31T01:42:20;29.80;50.60
23377;DHT22;14353;46.070;13.222;2023-07-31T01:44:45;29.80;50.60
23377;DHT22;14353;46.070;13.222;2023-07-31T01:47:11;29.80;50.70
23377;DHT22;14353;46.070;13.222;2023-07-31T01:49:37;29.80;50.70
23377;DHT22;14353;46.070;13.222;2023-07-31T01:52:02;29.80;50.70
23377;DHT22;14353;46.070;13.222;2023-07-31T01:54:28;29.80;50.70
23377;DHT22;14353;46.070;13.222;2023-07-31T01:56:54;29.80;50.70
23377;DHT22;14353;46.070;13.222;2023-07-31T01:59:20;29.70;50.70
23377;DHT22;14353;46.070;13.222;2023-07-31T02:01:45;29.70;50.70
23377;DHT22;14353;46.070;13.222;2023-07-31T02:04:11;29.70;50.70
23377;DHT22;14353;46.070;13.222;2023-07-31T02:06:37;29.70;50.70
23377;DHT22;14353;46.070;13.222;2023-07-31T02:09:03;29.70;50.70
23377;DHT22;14353;46.070;13.222;2023-07-31T02:11:29;29.70;50.70
23377;DHT22;14353;46.070;13.222;2023-07-31T02:13:54;29.80;50.80
23377;DHT22;14353;46.070;13.222;2023-07-31T02:16:20;29.70;50.80
23377;DHT22;14353;46.070;13.222;2023-07-31T02:18:46;29.70;50.80
23377;DHT22;14353;46.070;13.222;2023-07-31T02:21:11;29.70;50.80
23377;DHT22;14353;46.070;13.222;2023-07-31T02:23:37;29.70;50.80
23377;DHT22;14353;46.070;13.222;2023-07-31T02:26:03;29.70;50.80
23377;DHT22;14353;46.070;13.222;2023-07-31T02:28:29;29.70;50.90
23377;DHT22;14353;46.070;13.222;2023-07-31T02:30:55;29.70;50.80
23377;DHT22;14353;46.070;13.222;2023-07-31T02:33:21;29.70;50.90
23377;DHT22;14353;46.070;13.222;2023-07-31T02:35:46;29.70;50.90
23377;DHT22;14353;46.070;13.222;2023-07-31T02:38:12;29.70;50.90
23377;DHT22;14353;46.070;13.222;2023-07-31T02:40:39;29.70;50.90
23377;DHT22;14353;46.070;13.222;2023-07-31T02:43:07;29.70;50.90
23377;DHT22;14353;46.070;13.222;2023-07-31T02:45:32;29.70;50.90
23377;DHT22;14353;46.070;13.222;2023-07-31T02:47:58;29.70;50.90
23377;DHT22;14353;46.070;13.222;2023-07-31T02:50:24;29.70;50.90
23377;DHT22;14353;46.070;13.222;2023-07-31T02:52:49;29.70;50.90
23377;DHT22;14353;46.070;13.222;2023-07-31T02:55:15;29.70;50.90
23377;DHT22;14353;46.070;13.222;2023-07-31T02:57:41;29.60;50.90
23377;DHT22;14353;46.070;13.222;2023-07-31T03:00:07;29.60;50.90
23377;DHT22;14353;46.070;13.222;2023-07-31T03:02:33;29.60;50.90
23377;DHT22;14353;46.070;13.222;2023-07-31T03:04:59;29.60;50.90
23377;DHT22;14353;46.070;13.222;2023-07-31T03:07:24;29.60;50.90
23377;DHT22;14353;46.070;13.222;2023-07-31T03:09:50;29.60;50.90
23377;DHT22;14353;46.070;13.222;2023-07-31T03:12:16;29.60;50.90
23377;DHT22;14353;46.070;13.222;2023-07-31T03:14:41;29.60;50.90
23377;DHT22;14353;46.070;13.222;2023-07-31T03:17:07;29.60;50.90
23377;DHT22;14353;46.070;13.222;2023-07-31T03:19:33;29.60;50.90
23377;DHT22;14353;46.070;13.222;2023-07-31T03:21:59;29.60;51.00
23377;DHT22;14353;46.070;13.222;2023-07-31T03:24:25;29.60;50.90
23377;DHT22;14353;46.070;13.222;2023-07-31T03:26:52;29.60;51.00
23377;DHT22;14353;46.070;13.222;2023-07-31T03:29:18;29.60;51.00
23377;DHT22;14353;46.070;13.222;2023-07-31T03:31:44;29.60;51.00
23377;DHT22;14353;46.070;13.222;2023-07-31T03:34:09;29.60;51.00
23377;DHT22;14353;46.070;13.222;2023-07-31T03:36:35;29.60;51.10
23377;DHT22;14353;46.070;13.222;2023-07-31T03:39:01;29.60;51.00
23377;DHT22;14353;46.070;13.222;2023-07-31T03:41:26;29.60;51.00
23377;DHT22;14353;46.070;13.222;2023-07-31T03:43:52;29.60;51.00
23377;DHT22;14353;46.070;13.222;2023-07-31T03:46:18;29.60;51.10
23377;DHT22;14353;46.070;13.222;2023-07-31T03:48:43;29.50;51.00
23377;DHT22;14353;46.070;13.222;2023-07-31T03:51:09;29.50;51.00
23377;DHT22;14353;46.070;13.222;2023-07-31T03:53:35;29.50;51.00
23377;DHT22;14353;46.070;13.222;2023-07-31T03:56:00;29.50;51.00
23377;DHT22;14353;46.070;13.222;2023-07-31T03:58:26;29.50;51.00
23377;DHT22;14353;46.070;13.222;2023-07-31T04:00:52;29.50;51.00
23377;DHT22;14353;46.070;13.222;2023-07-31T04:03:17;29.50;51.10
23377;DHT22;14353;46.070;13.222;2023-07-31T04:05:44;29.50;51.10
23377;DHT22;14353;46.070;13.222;2023-07-31T04:08:09;29.50;51.70
23377;DHT22;14353;46.070;13.222;2023-07-31T04:10:35;29.50;51.00
23377;DHT22;14353;46.070;13.222;2023-07-31T04:13:01;29.50;51.00
23377;DHT22;14353;46.070;13.222;2023-07-31T04:15:26;29.50;51.10
23377;DHT22;14353;46.070;13.222;2023-07-31T04:17:52;29.50;51.10
23377;DHT22;14353;46.070;13.222;2023-07-31T04:20:18;29.50;51.10
23377;DHT22;14353;46.070;13.222;2023-07-31T04:22:44;29.50;51.70
23377;DHT22;14353;46.070;13.222;2023-07-31T04:25:09;29.50;51.10
23377;DHT22;14353;46.070;13.222;2023-07-31T04:27:35;29.50;51.10
23377;DHT22;14353;46.070;13.222;2023-07-31T04:30:01;29.50;51.10
23377;DHT22;14353;46.070;13.222;2023-07-31T04:32:26;29.50;51.10
23377;DHT22;14353;46.070;13.222;2023-07-31T04:34:52;29.50;51.10
23377;DHT22;14353;46.070;13.222;2023-07-31T04:37:18;29.50;51.00
23377;DHT22;14353;46.070;13.222;2023-07-31T04:39:43;29.50;51.20
23377;DHT22;14353;46.070;13.222;2023-07-31T04:42:09;29.50;51.00
23377;DHT22;14353;46.070;13.222;2023-07-31T04:44:35;29.50;51.70
23377;DHT22;14353;46.070;13.222;2023-07-31T04:47:01;29.50;51.00
23377;DHT22;14353;46.070;13.222;2023-07-31T04:49:27;29.50;51.00
23377;DHT22;14353;46.070;13.222;2023-07-31T04:51:53;29.50;51.00
23377;DHT22;14353;46.070;13.222;2023-07-31T04:54:19;29.50;51.00
23377;DHT22;14353;46.070;13.222;2023-07-31T04:56:44;29.50;51.00
23377;DHT22;14353;46.070;13.222;2023-07-31T04:59:10;29.50;51.00
23377;DHT22;14353;46.070;13.222;2023-07-31T05:01:36;29.50;51.00
23377;DHT22;14353;46.070;13.222;2023-07-31T05:04:01;29.50;51.00
23377;DHT22;14353;46.070;13.222;2023-07-31T05:06:27;29.50;51.00
23377;DHT22;14353;46.070;13.222;2023-07-31T05:08:53;29.50;51.00
23377;DHT22;14353;46.070;13.222;2023-07-31T05:11:19;29.50;50.90
23377;DHT22;14353;46.070;13.222;2023-07-31T05:13:44;29.50;50.90
23377;DHT22;14353;46.070;13.222;2023-07-31T05:16:10;29.50;50.90
23377;DHT22;14353;46.070;13.222;2023-07-31T05:18:36;29.50;50.90
23377;DHT22;14353;46.070;13.222;2023-07-31T05:21:01;29.50;50.90
23377;DHT22;14353;46.070;13.222;2023-07-31T05:23:27;29.50;50.90
23377;DHT22;14353;46.070;13.222;2023-07-31T05:25:53;29.50;50.90
23377;DHT22;14353;46.070;13.222;2023-07-31T05:28:20;29.50;50.90
23377;DHT22;14353;46.070;13.222;2023-07-31T05:30:46;29.50;50.90
23377;DHT22;14353;46.070;13.222;2023-07-31T05:33:12;29.50;50.90
23377;DHT22;14353;46.070;13.222;2023-07-31T05:35:38;29.50;50.90
23377;DHT22;14353;46.070;13.222;2023-07-31T05:38:04;29.50;50.90
23377;DHT22;14353;46.070;13.222;2023-07-31T05:40:32;29.50;50.80
23377;DHT22;14353;46.070;13.222;2023-07-31T05:42:58;29.50;50.80
23377;DHT22;14353;46.070;13.222;2023-07-31T05:45:27;29.50;50.80
23377;DHT22;14353;46.070;13.222;2023-07-31T05:47:52;29.50;50.80
23377;DHT22;14353;46.070;13.222;2023-07-31T05:50:18;29.50;50.80
23377;DHT22;14353;46.070;13.222;2023-07-31T05:52:44;29.50;50.80
23377;DHT22;14353;46.070;13.222;2023-07-31T05:55:09;29.50;50.80
23377;DHT22;14353;46.070;13.222;2023-07-31T05:57:35;29.50;50.70
23377;DHT22;14353;46.070;13.222;2023-07-31T06:00:02;29.50;50.80
23377;DHT22;14353;46.070;13.222;2023-07-31T06:02:28;29.50;50.70
23377;DHT22;14353;46.070;13.222;2023-07-31T06:04:53;29.50;50.70
23377;DHT22;14353;46.070;13.222;2023-07-31T06:07:19;29.50;50.70
23377;DHT22;14353;46.070;13.222;2023-07-31T06:09:45;29.50;50.70
23377;DHT22;14353;46.070;13.222;2023-07-31T06:12:10;29.50;50.60
23377;DHT22;14353;46.070;13.222;2023-07-31T06:14:36;29.50;50.60
23377;DHT22;14353;46.070;13.222;2023-07-31T06:17:02;29.60;50.70
23377;DHT22;14353;46.070;13.222;2023-07-31T06:19:28;29.60;50.70
23377;DHT22;14353;46.070;13.222;2023-07-31T06:21:54;29.60;50.60
23377;DHT22;14353;46.070;13.222;2023-07-31T06:24:19;29.60;50.60
23377;DHT22;14353;46.070;13.222;2023-07-31T06:26:46;29.60;50.50
23377;DHT22;14353;46.070;13.222;2023-07-31T06:29:11;29.60;50.50
23377;DHT22;14353;46.070;13.222;2023-07-31T06:31:37;29.60;50.50
23377;DHT22;14353;46.070;13.222;2023-07-31T06:34:03;29.60;50.50
23377;DHT22;14353;46.070;13.222;2023-07-31T06:36:28;29.60;50.40
23377;DHT22;14353;46.070;13.222;2023-07-31T06:38:54;29.60;50.40
23377;DHT22;14353;46.070;13.222;2023-07-31T06:41:20;29.60;50.40
23377;DHT22;14353;46.070;13.222;2023-07-31T06:43:45;29.60;50.30
23377;DHT22;14353;46.070;13.222;2023-07-31T06:46:11;29.70;50.40
23377;DHT22;14353;46.070;13.222;2023-07-31T06:48:37;29.70;50.30
23377;DHT22;14353;46.070;13.222;2023-07-31T06:51:03;29.70;50.20
23377;DHT22;14353;46.070;13.222;2023-07-31T06:53:29;29.70;50.20
23377;DHT22;14353;46.070;13.222;2023-07-31T06:55:55;29.70;50.20
23377;DHT22;14353;46.070;13.222;2023-07-31T06:58:20;29.70;50.20
23377;DHT22;14353;46.070;13.222;2023-07-31T07:00:46;29.70;50.10
23377;DHT22;14353;46.070;13.222;2023-07-31T07:03:14;29.70;50.10
23377;DHT22;14353;46.070;13.222;2023-07-31T07:05:40;29.80;50.10
23377;DHT22;14353;46.070;13.222;2023-07-31T07:08:06;29.80;50.10
23377;DHT22;14353;46.070;13.222;2023-07-31T07:10:31;29.80;50.00
23377;DHT22;14353;46.070;13.222;2023-07-31T07:12:57;29.80;50.00
23377;DHT22;14353;46.070;13.222;2023-07-31T07:15:23;29.80;50.00
23377;DHT22;14353;46.070;13.222;2023-07-31T07:17:48;29.80;49.90
23377;DHT22;14353;46.070;13.222;2023-07-31T07:20:14;29.80;49.90
23377;DHT22;14353;46.070;13.222;2023-07-31T07:22:40;29.80;49.80
23377;DHT22;14353;46.070;13.222;2023-07-31T07:25:08;29.90;49.80
23377;DHT22;14353;46.070;13.222;2023-07-31T07:27:34;29.90;49.80
23377;DHT22;14353;46.070;13.222;2023-07-31T07:30:00;29.90;49.70
23377;DHT22;14353;46.070;13.222;2023-07-31T07:32:25;29.90;49.60
23377;DHT22;14353;46.070;13.222;2023-07-31T07:34:51;29.90;49.60
23377;DHT22;14353;46.070;13.222;2023-07-31T07:37:17;29.90;49.60
23377;DHT22;14353;46.070;13.222;2023-07-31T07:39:43;29.90;49.50
23377;DHT22;14353;46.070;13.222;2023-07-31T07:42:09;29.90;49.50
23377;DHT22;14353;46.070;13.222;2023-07-31T07:44:35;30.00;49.40
23377;DHT22;14353;46.070;13.222;2023-07-31T07:47:00;29.90;49.30
23377;DHT22;14353;46.070;13.222;2023-07-31T07:49:26;30.00;49.30
23377;DHT22;14353;46.070;13.222;2023-07-31T07:51:51;30.00;49.30
23377;DHT22;14353;46.070;13.222;2023-07-31T07:54:17;30.00;49.00
23377;DHT22;14353;46.070;13.222;2023-07-31T07:56:43;30.00;49.00
23377;DHT22;14353;46.070;13.222;2023-07-31T07:59:09;30.10;48.90
23377;DHT22;14353;46.070;13.222;2023-07-31T08:01:34;30.00;48.70
23377;DHT22;14353;46.070;13.222;2023-07-31T08:04:00;30.10;48.70
23377;DHT22;14353;46.070;13.222;2023-07-31T08:06:26;30.10;48.70
23377;DHT22;14353;46.070;13.222;2023-07-31T08:08:51;30.20;48.70
23377;DHT22;14353;46.070;13.222;2023-07-31T08:11:17;30.20;48.60
23377;DHT22;14353;46.070;13.222;2023-07-31T08:13:43;30.20;48.50
23377;DHT22;14353;46.070;13.222;2023-07-31T08:16:09;30.20;48.40
23377;DHT22;14353;46.070;13.222;2023-07-31T08:18:35;30.20;48.30
23377;DHT22;14353;46.070;13.222;2023-07-31T08:21:03;30.20;48.30
23377;DHT22;14353;46.070;13.222;2023-07-31T08:23:29;30.20;48.20
23377;DHT22;14353;46.070;13.222;2023-07-31T08:25:55;30.30;48.20
23377;DHT22;14353;46.070;13.222;2023-07-31T08:28:21;30.30;48.20
23377;DHT22;14353;46.070;13.222;2023-07-31T08:30:46;30.30;48.20
23377;DHT22;14353;46.070;13.222;2023-07-31T08:33:12;30.30;48.20
23377;DHT22;14353;46.070;13.222;2023-07-31T08:35:41;30.30;48.10
23377;DHT22;14353;46.070;13.222;2023-07-31T08:38:06;30.40;48.10
23377;DHT22;14353;46.070;13.222;2023-07-31T08:40:35;30.30;48.00
23377;DHT22;14353;46.070;13.222;2023-07-31T08:43:01;30.40;48.00
23377;DHT22;14353;46.070;13.222;2023-07-31T08:45:28;30.30;47.90
23377;DHT22;14353;46.070;13.222;2023-07-31T08:47:55;30.40;47.90
23377;DHT22;14353;46.070;13.222;2023-07-31T08:50:22;30.40;47.90
23377;DHT22;14353;46.070;13.222;2023-07-31T08:52:50;30.40;47.90
23377;DHT22;14353;46.070;13.222;2023-07-31T08:55:15;30.50;47.80
23377;DHT22;14353;46.070;13.222;2023-07-31T08:57:42;30.40;47.80
23377;DHT22;14353;46.070;13.222;2023-07-31T09:00:09;30.50;47.70
23377;DHT22;14353;46.070;13.222;2023-07-31T09:02:56;30.50;47.70
23377;DHT22;14353;46.070;13.222;2023-07-31T09:05:23;30.50;47.70
23377;DHT22;14353;46.070;13.222;2023-07-31T09:07:50;30.50;47.70
23377;DHT22;14353;46.070;13.222;2023-07-31T09:10:16;30.50;47.70
23377;DHT22;14353;46.070;13.222;2023-07-31T09:12:42;30.50;47.60
23377;DHT22;14353;46.070;13.222;2023-07-31T09:15:09;30.50;47.70
23377;DHT22;14353;46.070;13.222;2023-07-31T09:17:36;30.50;47.70
23377;DHT22;14353;46.070;13.222;2023-07-31T09:20:22;30.50;47.60
23377;DHT22;14353;46.070;13.222;2023-07-31T09:22:50;30.50;47.60
23377;DHT22;14353;46.070;13.222;2023-07-31T09:25:25;30.50;47.50
23377;DHT22;14353;46.070;13.222;2023-07-31T09:27:58;30.50;47.50
23377;DHT22;14353;46.070;13.222;2023-07-31T09:30:24;30.60;47.60
23377;DHT22;14353;46.070;13.222;2023-07-31T09:32:51;30.60;47.50
23377;DHT22;14353;46.070;13.222;2023-07-31T09:37:53;30.60;47.50
23377;DHT22;14353;46.070;13.222;2023-07-31T09:40:46;30.60;47.40
23377;DHT22;14353;46.070;13.222;2023-07-31T09:43:18;30.60;47.40
23377;DHT22;14353;46.070;13.222;2023-07-31T09:45:45;30.60;47.40
23377;DHT22;14353;46.070;13.222;2023-07-31T09:48:17;30.60;47.40
23377;DHT22;14353;46.070;13.222;2023-07-31T09:50:45;30.60;47.30
23377;DHT22;14353;46.070;13.222;2023-07-31T09:53:11;30.70;47.40
23377;DHT22;14353;46.070;13.222;2023-07-31T09:55:40;30.70;47.40
23377;DHT22;14353;46.070;13.222;2023-07-31T09:58:13;30.70;47.40
23377;DHT22;14353;46.070;13.222;2023-07-31T10:00:39;30.70;47.30
23377;DHT22;14353;46.070;13.222;2023-07-31T10:03:09;30.70;47.30
23377;DHT22;14353;46.070;13.222;2023-07-31T10:05:45;30.70;47.30
23377;DHT22;14353;46.070;13.222;2023-07-31T10:08:15;30.70;47.30
23377;DHT22;14353;46.070;13.222;2023-07-31T10:10:42;30.70;47.30
23377;DHT22;14353;46.070;13.222;2023-07-31T10:13:09;30.70;47.30
23377;DHT22;14353;46.070;13.222;2023-07-31T10:15:36;30.70;47.20
23377;DHT22;14353;46.070;13.222;2023-07-31T10:18:02;30.70;47.20
23377;DHT22;14353;46.070;13.222;2023-07-31T10:20:31;30.70;47.20
23377;DHT22;14353;46.070;13.222;2023-07-31T10:22:57;30.70;47.30
23377;DHT22;14353;46.070;13.222;2023-07-31T10:25:26;30.70;47.30
23377;DHT22;14353;46.070;13.222;2023-07-31T10:27:53;30.70;47.30
23377;DHT22;14353;46.070;13.222;2023-07-31T10:30:22;30.70;47.30
23377;DHT22;14353;46.070;13.222;2023-07-31T10:32:51;30.70;47.30
23377;DHT22;14353;46.070;13.222;2023-07-31T10:35:21;30.70;47.40
23377;DHT22;14353;46.070;13.222;2023-07-31T10:37:50;30.70;47.40
23377;DHT22;14353;46.070;13.222;2023-07-31T10:40:27;30.70;47.30
23377;DHT22;14353;46.070;13.222;2023-07-31T10:42:56;30.70;47.30
23377;DHT22;14353;46.070;13.222;2023-07-31T10:45:39;30.70;47.30
23377;DHT22;14353;46.070;13.222;2023-07-31T10:50:38;30.70;47.20
23377;DHT22;14353;46.070;13.222;2023-07-31T10:53:04;30.70;47.20
23377;DHT22;14353;46.070;13.222;2023-07-31T10:55:40;30.70;47.20
23377;DHT22;14353;46.070;13.222;2023-07-31T10:58:13;30.80;47.20
23377;DHT22;14353;46.070;13.222;2023-07-31T11:00:44;30.80;47.20
23377;DHT22;14353;46.070;13.222;2023-07-31T11:03:13;30.80;47.20
23377;DHT22;14353;46.070;13.222;2023-07-31T11:05:47;30.80;47.20
23377;DHT22;14353;46.070;13.222;2023-07-31T11:08:17;30.80;47.10
23377;DHT22;14353;46.070;13.222;2023-07-31T11:10:45;30.80;47.20
23377;DHT22;14353;46.070;13.222;2023-07-31T11:13:11;30.80;47.20
23377;DHT22;14353;46.070;13.222;2023-07-31T11:15:38;30.80;47.20
23377;DHT22;14353;46.070;13.222;2023-07-31T11:18:04;30.80;47.10
23377;DHT22;14353;46.070;13.222;2023-07-31T11:20:31;30.80;47.20
23377;DHT22;14353;46.070;13.222;2023-07-31T11:23:07;30.80;47.20
23377;DHT22;14353;46.070;13.222;2023-07-31T11:25:34;30.80;47.20
23377;DHT22;14353;46.070;13.222;2023-07-31T11:28:13;30.80;47.10
23377;DHT22;14353;46.070;13.222;2023-07-31T11:30:41;30.80;47.10
23377;DHT22;14353;46.070;13.222;2023-07-31T11:33:08;30.80;47.80
23377;DHT22;14353;46.070;13.222;2023-07-31T11:35:36;30.80;47.20
23377;DHT22;14353;46.070;13.222;2023-07-31T11:38:07;30.80;47.10
23377;DHT22;14353;46.070;13.222;2023-07-31T11:40:44;30.90;47.20
23377;DHT22;14353;46.070;13.222;2023-07-31T11:43:10;30.90;47.10
23377;DHT22;14353;46.070;13.222;2023-07-31T11:45:37;30.90;47.10
23377;DHT22;14353;46.070;13.222;2023-07-31T11:48:04;30.90;47.00
23377;DHT22;14353;46.070;13.222;2023-07-31T11:50:33;30.90;47.00
23377;DHT22;14353;46.070;13.222;2023-07-31T11:53:06;31.00;47.10
23377;DHT22;14353;46.070;13.222;2023-07-31T11:55:33;30.90;47.00
23377;DHT22;14353;46.070;13.222;2023-07-31T11:57:59;31.00;47.00
23377;DHT22;14353;46.070;13.222;2023-07-31T12:00:26;31.00;47.00
23377;DHT22;14353;46.070;13.222;2023-07-31T12:02:53;31.00;47.00
23377;DHT22;14353;46.070;13.222;2023-07-31T12:05:19;31.00;46.90
23377;DHT22;14353;46.070;13.222;2023-07-31T12:07:45;31.00;46.90
23377;DHT22;14353;46.070;13.222;2023-07-31T12:10:21;31.00;46.90
23377;DHT22;14353;46.070;13.222;2023-07-31T12:12:56;31.00;46.80
23377;DHT22;14353;46.070;13.222;2023-07-31T12:15:22;31.10;46.80
23377;DHT22;14353;46.070;13.222;2023-07-31T12:17:53;31.10;46.80
23377;DHT22;14353;46.070;13.222;2023-07-31T12:20:20;31.10;46.70
23377;DHT22;14353;46.070;13.222;2023-07-31T12:22:46;31.10;46.70
23377;DHT22;14353;46.070;13.222;2023-07-31T12:25:15;31.10;46.70
23377;DHT22;14353;46.070;13.222;2023-07-31T12:27:44;31.10;46.70
23377;DHT22;14353;46.070;13.222;2023-07-31T12:30:31;31.10;46.70
23377;DHT22;14353;46.070;13.222;2023-07-31T12:32:57;31.10;46.70
23377;DHT22;14353;46.070;13.222;2023-07-31T12:35:22;31.10;46.70
23377;DHT22;14353;46.070;13.222;2023-07-31T12:37:48;31.10;46.70
23377;DHT22;14353;46.070;13.222;2023-07-31T12:40:14;31.10;46.60
23377;DHT22;14353;46.070;13.222;2023-07-31T12:42:41;31.20;46.60
23377;DHT22;14353;46.070;13.222;2023-07-31T12:45:07;31.20;46.60
23377;DHT22;14353;46.070;13.222;2023-07-31T12:47:33;31.20;46.60
23377;DHT22;14353;46.070;13.222;2023-07-31T12:49:58;31.20;46.50
23377;DHT22;14353;46.070;13.222;2023-07-31T12:52:24;31.30;46.60
23377;DHT22;14353;46.070;13.222;2023-07-31T12:54:50;31.30;46.50
23377;DHT22;14353;46.070;13.222;2023-07-31T12:57:15;31.30;46.60
23377;DHT22;14353;46.070;13.222;2023-07-31T12:59:41;31.30;46.60
23377;DHT22;14353;46.070;13.222;2023-07-31T13:02:07;31.20;46.50
23377;DHT22;14353;46.070;13.222;2023-07-31T13:04:32;31.30;46.60
23377;DHT22;14353;46.070;13.222;2023-07-31T13:06:58;31.30;46.60
23377;DHT22;14353;46.070;13.222;2023-07-31T13:09:24;31.20;46.60
23377;DHT22;14353;46.070;13.222;2023-07-31T13:11:49;31.20;46.60
23377;DHT22;14353;46.070;13.222;2023-07-31T13:14:15;31.20;46.60
23377;DHT22;14353;46.070;13.222;2023-07-31T13:16:42;31.20;46.60
23377;DHT22;14353;46.070;13.222;2023-07-31T13:19:08;31.20;46.60
23377;DHT22;14353;46.070;13.222;2023-07-31T13:21:33;31.20;46.60
23377;DHT22;14353;46.070;13.222;2023-07-31T13:24:02;31.20;46.60
23377;DHT22;14353;46.070;13.222;2023-07-31T13:26:28;31.20;46.60
23377;DHT22;14353;46.070;13.222;2023-07-31T13:28:54;31.20;46.60
23377;DHT22;14353;46.070;13.222;2023-07-31T13:31:19;31.20;46.60
23377;DHT22;14353;46.070;13.222;2023-07-31T13:33:45;31.20;46.60
23377;DHT22;14353;46.070;13.222;2023-07-31T13:36:11;31.30;46.70
23377;DHT22;14353;46.070;13.222;2023-07-31T13:38:39;31.30;46.60
23377;DHT22;14353;46.070;13.222;2023-07-31T13:41:05;31.30;46.60
23377;DHT22;14353;46.070;13.222;2023-07-31T13:43:31;31.30;46.60
23377;DHT22;14353;46.070;13.222;2023-07-31T13:45:56;31.30;46.50
23377;DHT22;14353;46.070;13.222;2023-07-31T13:48:22;31.30;46.50
23377;DHT22;14353;46.070;13.222;2023-07-31T13:50:48;31.30;46.50
23377;DHT22;14353;46.070;13.222;2023-07-31T13:53:13;31.30;46.50
23377;DHT22;14353;46.070;13.222;2023-07-31T13:55:39;31.30;46.40
23377;DHT22;14353;46.070;13.222;2023-07-31T13:58:05;31.30;46.40
23377;DHT22;14353;46.070;13.222;2023-07-31T14:00:30;31.30;46.40
23377;DHT22;14353;46.070;13.222;2023-07-31T14:02:57;31.40;46.40
23377;DHT22;14353;46.070;13.222;2023-07-31T14:05:22;31.40;46.40
23377;DHT22;14353;46.070;13.222;2023-07-31T14:07:48;31.40;46.30
23377;DHT22;14353;46.070;13.222;2023-07-31T14:10:14;31.40;46.30
23377;DHT22;14353;46.070;13.222;2023-07-31T14:12:39;31.50;46.40
23377;DHT22;14353;46.070;13.222;2023-07-31T14:15:05;31.50;46.40
23377;DHT22;14353;46.070;13.222;2023-07-31T14:17:31;31.50;46.30
23377;DHT22;14353;46.070;13.222;2023-07-31T14:19:57;31.50;46.30
23377;DHT22;14353;46.070;13.222;2023-07-31T14:22:29;31.50;46.20
23377;DHT22;14353;46.070;13.222;2023-07-31T14:24:55;31.60;46.20
23377;DHT22;14353;46.070;13.222;2023-07-31T14:27:21;31.50;46.10
23377;DHT22;14353;46.070;13.222;2023-07-31T14:29:47;31.60;46.20
23377;DHT22;14353;46.070;13.222;2023-07-31T14:32:12;31.60;46.20
23377;DHT22;14353;46.070;13.222;2023-07-31T14:34:38;31.60;46.10
23377;DHT22;14353;46.070;13.222;2023-07-31T14:37:04;31.70;46.10
23377;DHT22;14353;46.070;13.222;2023-07-31T14:39:30;31.60;46.00
23377;DHT22;14353;46.070;13.222;2023-07-31T14:41:56;31.70;46.00
23377;DHT22;14353;46.070;13.222;2023-07-31T14:44:21;31.60;46.00
23377;DHT22;14353;46.070;13.222;2023-07-31T14:46:47;31.60;46.00
23377;DHT22;14353;46.070;13.222;2023-07-31T14:49:13;31.70;46.10
23377;DHT22;14353;46.070;13.222;2023-07-31T14:51:39;31.60;46.10
23377;DHT22;14353;46.070;13.222;2023-07-31T14:54:05;31.60;46.10
23377;DHT22;14353;46.070;13.222;2023-07-31T14:56:30;31.60;46.10
23377;DHT22;14353;46.070;13.222;2023-07-31T14:58:57;31.60;46.10
23377;DHT22;14353;46.070;13.222;2023-07-31T15:01:23;31.60;46.10
23377;DHT22;14353;46.070;13.222;2023-07-31T15:03:49;31.70;46.10
23377;DHT22;14353;46.070;13.222;2023-07-31T15:06:15;31.70;46.10
23377;DHT22;14353;46.070;13.222;2023-07-31T15:08:40;31.70;46.00
23377;DHT22;14353;46.070;13.222;2023-07-31T15:11:09;31.80;46.00
23377;DHT22;14353;46.070;13.222;2023-07-31T15:13:34;31.80;46.00
23377;DHT22;14353;46.070;13.222;2023-07-31T15:16:00;31.80;45.90
23377;DHT22;14353;46.070;13.222;2023-07-31T15:18:26;31.80;45.90
23377;DHT22;14353;46.070;13.222;2023-07-31T15:20:53;31.80;45.80
23377;DHT22;14353;46.070;13.222;2023-07-31T15:23:19;31.80;45.80
23377;DHT22;14353;46.070;13.222;2023-07-31T15:25:45;31.80;45.80
23377;DHT22;14353;46.070;13.222;2023-07-31T15:28:10;31.90;45.80